Decoded Metar for KHST (HOMESTEAD in FL, USA) (IATA:HST) | Meteo·Mobile Aviation Weather
aviador You're here:

KHST Decoded Metar

HOMESTEAD in FL, USA
Report Time2018-09-23 18:56:00
UTC Time2018-09-23 19:43:47
Flight Rules vfr VFR
Wind050° at 09 kt
W.Decomp.*RWY 05: 9.0 kt HW 0.5 kt RCW
W.Rank050° ranks 7
Current wind is below 050° avg. (9.0)
Visibility9999 m
Phenomena:N/A
Clouds:N/A
Expected CloudBase > 3,200 ft AGL from Temp-Dew spread
CeilingNone
Temp31°C (ISA +16)
Dew Point23°C (62% RH)
Heat Index35.4°C
QNH1014 hPa
Density Alt2,175 ft
Elevation7 ft
Report Wrong Elevation
Raw Report
METAR KHST 231856Z AUTO 05009KT 10SM CLR 31/23 A2994 RMK AO2 LTG DSNT
SW SLP142 T03140227 FZRANO VISNO RWY24 $=

Extra information for KHST:More info

Metar Taf Metar & Taf Last 4 Metars F.Rules Stats Wind Profile Meteogram Temp Stats Airport Information Weather charts Add Link Nearby VenuesMetar ALERT Operation Metar Decoded Social comments

AIRNAV info for KHST